Time,TemperatureF,DewpointF,PressureIn,WindDirection,WindDirectionDegrees,WindSpeedMPH,WindSpeedGustMPH,Humidity,HourlyPrecipIn,Conditions,Clouds,dailyrainin,SoftwareType,DateUTC
2013-08-31 00:02:00,70.3,68.7,29.85,WSW,243,0.9,2.0,94,0.00,,,0.00,WSDL version 420,2013-08-31 04:02:00,
2013-08-31 00:05:00,70.4,68.7,29.85,SW,225,0.9,1.6,94,0.00,,,0.00,WSDL version 420,2013-08-31 04:05:00,
2013-08-31 00:06:00,70.5,68.8,29.85,SW,225,0.3,1.6,94,0.00,,,0.00,WSDL version 420,2013-08-31 04:06:00,
2013-08-31 00:12:00,70.6,68.9,29.85,WSW,248,0.0,1.3,94,0.00,,,0.00,WSDL version 420,2013-08-31 04:12:00,
2013-08-31 00:14:00,70.6,68.9,29.85,WSW,248,0.0,1.3,94,0.00,,,0.00,WSDL version 420,2013-08-31 04:14:00,
2013-08-31 00:18:00,70.7,69.0,29.85,SW,218,0.0,0.0,94,0.00,,,0.00,WSDL version 420,2013-08-31 04:18:00,
2013-08-31 00:24:00,70.6,69.0,29.85,SW,233,0.0,1.1,94,0.00,,,0.00,WSDL version 420,2013-08-31 04:24:00,
2013-08-31 00:30:00,70.5,68.8,29.85,WSW,248,0.8,1.6,94,0.00,,,0.00,WSDL version 420,2013-08-31 04:30:00,
2013-08-31 00:36:00,70.5,68.8,29.85,SW,218,0.0,1.6,94,0.00,,,0.00,WSDL version 420,2013-08-31 04:36:00,
2013-08-31 00:42:00,70.5,69.1,29.85,West,270,0.0,1.3,96,0.00,,,0.00,WSDL version 420,2013-08-31 04:42:00,
2013-08-31 00:48:00,70.5,69.0,29.85,SW,236,0.4,2.5,94,0.00,,,0.00,WSDL version 420,2013-08-31 04:48:00,
2013-08-31 00:55:00,-999.0,-99.9,29.85,SW,225,0.3,0.9,-999,0.00,,,0.00,WSDL version 420,2013-08-31 04:55:00,
2013-08-31 01:01:00,70.5,69.2,29.85,WSW,248,0.0,0.9,96,0.00,,,0.00,WSDL version 420,2013-08-31 05:01:00,
2013-08-31 01:07:00,70.5,69.2,29.85,SW,225,0.0,0.0,96,0.00,,,0.00,WSDL version 420,2013-08-31 05:07:00,
2013-08-31 01:13:00,70.7,69.4,29.85,SW,225,0.0,0.0,96,0.00,,,0.00,WSDL version 420,2013-08-31 05:13:00,
2013-08-31 01:19:00,70.6,69.3,29.85,SW,225,0.0,0.0,96,0.00,,,0.00,WSDL version 420,2013-08-31 05:19:00,
2013-08-31 01:25:00,70.5,69.2,29.85,SW,225,0.3,0.9,96,0.00,,,0.00,WSDL version 420,2013-08-31 05:25:00,
2013-08-31 01:31:00,70.3,69.0,29.85,SW,225,0.0,0.9,96,0.00,,,0.00,WSDL version 420,2013-08-31 05:31:00,
2013-08-31 01:37:00,70.3,69.0,29.85,SW,236,1.0,2.0,96,0.00,,,0.00,WSDL version 420,2013-08-31 05:37:00,
2013-08-31 01:43:00,70.3,69.0,29.85,SW,234,0.2,2.0,96,0.00,,,0.00,WSDL version 420,2013-08-31 05:43:00,
2013-08-31 01:49:00,70.3,69.0,29.85,West,259,0.0,1.3,96,0.00,,,0.00,WSDL version 420,2013-08-31 05:49:00,
2013-08-31 01:55:00,70.4,69.3,29.85,WSW,248,0.0,2.7,96,0.00,,,0.00,WSDL version 420,2013-08-31 05:55:00,
2013-08-31 02:01:00,70.5,69.5,29.85,WSW,248,0.0,2.7,97,0.00,,,0.00,WSDL version 420,2013-08-31 06:01:00,
2013-08-31 02:07:00,70.5,69.5,29.85,WSW,248,0.0,0.0,97,0.00,,,0.00,WSDL version 420,2013-08-31 06:07:00,
2013-08-31 02:13:00,70.4,69.4,29.85,WSW,248,0.7,1.6,97,0.00,,,0.00,WSDL version 420,2013-08-31 06:13:00,
2013-08-31 02:19:00,70.4,69.4,29.85,West,264,0.3,1.6,97,0.00,,,0.00,WSDL version 420,2013-08-31 06:19:00,
2013-08-31 02:25:00,70.5,69.5,29.85,WSW,248,0.0,1.1,97,0.00,,,0.00,WSDL version 420,2013-08-31 06:25:00,
2013-08-31 02:31:00,70.5,69.5,29.85,SSW,203,0.0,0.0,97,0.00,,,0.00,WSDL version 420,2013-08-31 06:31:00,
2013-08-31 02:37:00,70.5,69.5,29.85,SW,225,0.7,1.3,97,0.00,,,0.00,WSDL version 420,2013-08-31 06:37:00,
2013-08-31 02:43:00,70.4,69.4,29.83,SW,225,0.0,1.3,97,0.00,,,0.00,WSDL version 420,2013-08-31 06:43:00,
2013-08-31 02:49:00,70.3,69.3,29.83,SW,225,0.0,0.0,97,0.00,,,0.00,WSDL version 420,2013-08-31 06:49:00,
2013-08-31 02:55:00,70.3,69.3,29.83,SW,225,0.0,0.0,97,0.00,,,0.00,WSDL version 420,2013-08-31 06:55:00,
2013-08-31 03:01:00,70.3,69.3,29.83,SW,225,0.0,0.0,97,0.00,,,0.00,WSDL version 420,2013-08-31 07:01:00,
2013-08-31 03:07:00,70.3,69.3,29.83,SW,225,0.0,0.0,97,0.00,,,0.00,WSDL version 420,2013-08-31 07:07:00,
2013-08-31 03:13:00,70.3,69.3,29.83,WSW,248,0.0,0.0,97,0.00,,,0.00,WSDL version 420,2013-08-31 07:13:00,
2013-08-31 03:19:00,70.3,69.3,29.83,WSW,248,0.0,0.0,97,0.00,,,0.00,WSDL version 420,2013-08-31 07:19:00,
2013-08-31 03:25:00,70.2,69.2,29.83,WSW,248,0.0,0.0,97,0.00,,,0.00,WSDL version 420,2013-08-31 07:25:00,
2013-08-31 03:31:00,70.2,69.2,29.83,SW,231,0.0,0.0,97,0.00,,,0.00,WSDL version 420,2013-08-31 07:31:00,
2013-08-31 03:37:00,70.3,69.3,29.83,WSW,248,0.0,0.0,97,0.00,,,0.00,WSDL version 420,2013-08-31 07:37:00,
2013-08-31 03:43:00,70.4,69.4,29.83,WSW,248,0.0,0.0,97,0.00,,,0.00,WSDL version 420,2013-08-31 07:43:00,
2013-08-31 03:49:00,70.4,69.5,29.83,WSW,242,0.0,0.0,97,0.00,,,0.00,WSDL version 420,2013-08-31 07:49:00,
2013-08-31 03:55:00,70.2,69.2,29.83,West,270,0.0,1.3,97,0.00,,,0.00,WSDL version 420,2013-08-31 07:55:00,
2013-08-31 04:01:00,70.2,69.2,29.83,West,259,0.0,1.3,97,0.00,,,0.00,WSDL version 420,2013-08-31 08:01:00,
2013-08-31 04:07:00,70.2,69.2,29.83,WSW,248,0.0,0.0,97,0.00,,,0.00,WSDL version 420,2013-08-31 08:07:00,
2013-08-31 04:14:00,70.2,69.2,29.83,WSW,248,0.0,0.0,97,0.00,,,0.00,WSDL version 420,2013-08-31 08:14:00,
2013-08-31 04:20:00,70.1,69.1,29.83,WSW,240,0.6,0.9,97,0.00,,,0.00,WSDL version 420,2013-08-31 08:20:00,
2013-08-31 04:26:00,70.1,69.1,29.83,WSW,248,0.0,0.9,97,0.00,,,0.00,WSDL version 420,2013-08-31 08:26:00,
2013-08-31 04:32:00,70.0,69.0,29.83,WSW,243,0.0,0.0,97,0.00,,,0.00,WSDL version 420,2013-08-31 08:32:00,
2013-08-31 04:38:00,70.0,69.0,29.83,West,270,0.0,0.0,97,0.00,,,0.00,WSDL version 420,2013-08-31 08:38:00,
2013-08-31 04:44:00,70.0,69.3,29.83,West,270,0.0,0.0,98,0.00,,,0.00,WSDL version 420,2013-08-31 08:44:00,
2013-08-31 04:50:00,70.0,69.2,29.83,West,270,0.0,0.0,98,0.00,,,0.00,WSDL version 420,2013-08-31 08:50:00,
2013-08-31 04:56:00,69.9,69.3,29.83,West,270,0.0,0.0,98,0.00,,,0.00,WSDL version 420,2013-08-31 08:56:00,
2013-08-31 05:02:00,69.9,69.2,29.83,West,270,0.0,0.0,98,0.00,,,0.00,WSDL version 420,2013-08-31 09:02:00,
2013-08-31 05:08:00,69.9,69.2,29.83,West,270,0.0,0.0,98,0.00,,,0.00,WSDL version 420,2013-08-31 09:08:00,
2013-08-31 05:14:00,69.7,69.1,29.83,West,270,0.0,0.0,98,0.00,,,0.00,WSDL version 420,2013-08-31 09:14:00,
2013-08-31 05:20:00,69.7,69.0,29.83,West,270,0.0,0.0,98,0.00,,,0.00,WSDL version 420,2013-08-31 09:20:00,
2013-08-31 05:26:00,69.7,69.1,29.83,West,270,0.0,0.0,98,0.00,,,0.00,WSDL version 420,2013-08-31 09:26:00,
2013-08-31 05:32:00,69.8,69.1,29.83,West,270,0.0,0.0,98,0.00,,,0.00,WSDL version 420,2013-08-31 09:32:00,
2013-08-31 05:38:00,69.9,69.2,29.83,West,270,0.0,0.0,98,0.00,,,0.00,WSDL version 420,2013-08-31 09:38:00,
2013-08-31 05:44:00,69.8,69.1,29.85,West,270,0.0,0.0,98,0.00,,,0.00,WSDL version 420,2013-08-31 09:44:00,
2013-08-31 05:50:00,69.9,69.2,29.85,West,270,0.0,0.0,98,0.00,,,0.00,WSDL version 420,2013-08-31 09:50:00,
2013-08-31 05:56:00,69.8,69.1,29.85,SW,225,0.0,0.0,98,0.00,,,0.00,WSDL version 420,2013-08-31 09:56:00,
2013-08-31 06:02:00,70.0,69.3,29.83,SW,225,0.0,0.0,98,0.00,,,0.00,WSDL version 420,2013-08-31 10:02:00,
2013-08-31 06:08:00,70.0,69.2,29.83,WSW,248,0.0,0.0,97,0.00,,,0.00,WSDL version 420,2013-08-31 10:08:00,
2013-08-31 06:14:00,70.0,69.0,29.83,SW,225,0.0,2.2,97,0.00,,,0.00,WSDL version 420,2013-08-31 10:14:00,
2013-08-31 06:20:00,70.0,69.2,29.83,SW,230,0.0,2.2,98,0.00,,,0.00,WSDL version 420,2013-08-31 10:20:00,
2013-08-31 06:26:00,70.0,69.4,29.83,SW,225,0.0,0.0,98,0.00,,,0.00,WSDL version 420,2013-08-31 10:26:00,
2013-08-31 06:32:00,70.1,69.5,29.85,SSE,158,0.0,0.0,98,0.00,,,0.00,WSDL version 420,2013-08-31 10:32:00,
2013-08-31 06:38:00,70.2,69.5,29.85,SSE,158,0.0,0.0,98,0.00,,,0.00,WSDL version 420,2013-08-31 10:38:00,
2013-08-31 06:44:00,70.3,69.7,29.83,West,270,0.0,0.0,98,0.00,,,0.00,WSDL version 420,2013-08-31 10:44:00,
2013-08-31 06:50:00,70.3,69.6,29.83,West,261,0.0,0.0,98,0.00,,,0.00,WSDL version 420,2013-08-31 10:50:00,
2013-08-31 06:56:00,70.2,69.6,29.83,SW,225,0.0,0.0,98,0.00,,,0.00,WSDL version 420,2013-08-31 10:56:00,
2013-08-31 07:02:00,70.3,69.6,29.83,South,180,0.0,0.0,98,0.00,,,0.00,WSDL version 420,2013-08-31 11:02:00,
2013-08-31 07:08:00,70.2,69.5,29.83,SSW,203,1.7,2.9,98,0.00,,,0.00,WSDL version 420,2013-08-31 11:08:00,
2013-08-31 07:14:00,70.3,69.7,29.83,SSW,203,0.3,2.9,98,0.00,,,0.00,WSDL version 420,2013-08-31 11:14:00,
2013-08-31 07:20:00,70.4,69.7,29.83,SSE,158,0.0,1.3,98,0.00,,,0.00,WSDL version 420,2013-08-31 11:20:00,
2013-08-31 07:26:00,70.5,69.9,29.83,South,180,0.0,0.0,98,0.00,,,0.00,WSDL version 420,2013-08-31 11:26:00,
2013-08-31 07:33:00,70.6,70.0,29.83,SE,140,0.0,0.0,98,0.00,,,0.00,WSDL version 420,2013-08-31 11:33:00,
2013-08-31 07:39:00,70.7,70.0,29.83,SW,225,0.0,0.0,98,0.00,,,0.00,WSDL version 420,2013-08-31 11:39:00,
2013-08-31 07:45:00,70.7,70.0,29.85,SW,233,0.0,0.0,98,0.00,,,0.00,WSDL version 420,2013-08-31 11:45:00,
2013-08-31 07:51:00,70.8,70.0,29.85,SW,230,0.0,0.0,97,0.00,,,0.00,WSDL version 420,2013-08-31 11:51:00,
2013-08-31 07:57:00,70.9,69.9,29.85,SE,146,0.0,0.0,97,0.00,,,0.00,WSDL version 420,2013-08-31 11:57:00,
2013-08-31 08:03:00,71.2,70.2,29.85,SSW,197,0.0,0.0,97,0.00,,,0.00,WSDL version 420,2013-08-31 12:03:00,
2013-08-31 08:09:00,71.4,70.4,29.85,SSW,203,0.0,0.0,97,0.00,,,0.00,WSDL version 420,2013-08-31 12:09:00,
2013-08-31 08:15:00,71.6,70.6,29.85,SSW,203,0.0,0.0,97,0.00,,,0.00,WSDL version 420,2013-08-31 12:15:00,
2013-08-31 08:21:00,71.8,70.8,29.85,SW,221,0.0,0.0,97,0.00,,,0.00,WSDL version 420,2013-08-31 12:21:00,
2013-08-31 08:27:00,71.8,70.8,29.85,WSW,248,0.0,0.0,97,0.00,,,0.00,WSDL version 420,2013-08-31 12:27:00,
2013-08-31 08:33:00,72.1,70.8,29.85,South,180,0.0,0.0,96,0.00,,,0.00,WSDL version 420,2013-08-31 12:33:00,
2013-08-31 08:39:00,72.1,70.9,29.85,East,101,0.4,3.6,96,0.00,,,0.00,WSDL version 420,2013-08-31 12:39:00,
2013-08-31 08:45:00,72.3,70.9,29.85,SSW,210,0.0,1.6,96,0.00,,,0.00,WSDL version 420,2013-08-31 12:45:00,
2013-08-31 08:51:00,72.4,71.1,29.85,NE,45,0.0,0.0,96,0.00,,,0.00,WSDL version 420,2013-08-31 12:51:00,
2013-08-31 08:57:00,72.5,71.2,29.85,West,270,0.0,0.9,96,0.00,,,0.00,WSDL version 420,2013-08-31 12:57:00,
2013-08-31 09:03:00,72.5,71.2,29.85,SW,225,0.0,0.0,96,0.00,,,0.00,WSDL version 420,2013-08-31 13:03:00,
2013-08-31 09:09:00,72.7,71.4,29.85,SSE,152,0.0,0.0,96,0.00,,,0.00,WSDL version 420,2013-08-31 13:09:00,
2013-08-31 09:15:00,73.0,71.5,29.85,SSW,194,0.0,0.0,96,0.00,,,0.00,WSDL version 420,2013-08-31 13:15:00,
2013-08-31 09:21:00,73.0,71.3,29.85,WSW,248,0.0,0.0,94,0.00,,,0.00,WSDL version 420,2013-08-31 13:21:00,
2013-08-31 09:27:00,73.2,71.5,29.85,West,274,0.0,0.0,94,0.00,,,0.00,WSDL version 420,2013-08-31 13:27:00,
2013-08-31 09:33:00,73.2,71.5,29.85,SSW,198,0.0,0.0,94,0.00,,,0.00,WSDL version 420,2013-08-31 13:33:00,
2013-08-31 09:39:00,73.4,71.5,29.85,WNW,287,0.0,0.0,93,0.00,,,0.00,WSDL version 420,2013-08-31 13:39:00,
2013-08-31 09:45:00,73.6,71.5,29.85,SSW,203,0.4,2.2,93,0.00,,,0.00,WSDL version 420,2013-08-31 13:45:00,
2013-08-31 09:51:00,73.8,71.8,29.85,WSW,252,0.0,0.9,93,0.00,,,0.00,WSDL version 420,2013-08-31 13:51:00,
2013-08-31 09:57:00,73.9,71.8,29.85,South,180,1.2,2.9,93,0.00,,,0.00,WSDL version 420,2013-08-31 13:57:00,
2013-08-31 10:03:00,74.1,71.7,29.85,South,171,1.6,2.9,92,0.00,,,0.00,WSDL version 420,2013-08-31 14:03:00,
2013-08-31 10:09:00,74.5,72.1,29.85,WSW,252,1.0,2.7,92,0.00,,,0.00,WSDL version 420,2013-08-31 14:09:00,
2013-08-31 10:15:00,74.4,71.9,29.85,WSW,257,0.3,2.7,91,0.00,,,0.00,WSDL version 420,2013-08-31 14:15:00,
2013-08-31 10:21:00,74.7,72.0,29.85,SW,225,0.0,1.6,91,0.00,,,0.00,WSDL version 420,2013-08-31 14:21:00,
2013-08-31 10:27:00,75.0,72.3,29.85,SW,230,0.7,2.9,91,0.00,,,0.00,WSDL version 420,2013-08-31 14:27:00,
2013-08-31 10:33:00,75.2,72.4,29.85,SSE,167,1.1,2.5,91,0.00,,,0.00,WSDL version 420,2013-08-31 14:33:00,
2013-08-31 10:39:00,75.4,72.7,29.85,South,180,0.0,2.2,91,0.00,,,0.00,WSDL version 420,2013-08-31 14:39:00,
2013-08-31 10:45:00,75.7,72.9,29.85,NNW,338,0.0,2.5,91,0.00,,,0.00,WSDL version 420,2013-08-31 14:45:00,
2013-08-31 10:52:00,75.6,72.4,29.85,South,191,1.0,2.5,90,0.00,,,0.00,WSDL version 420,2013-08-31 14:52:00,
2013-08-31 10:58:00,76.1,73.2,29.85,SE,143,1.1,3.1,90,0.00,,,0.00,WSDL version 420,2013-08-31 14:58:00,
2013-08-31 11:04:00,76.6,73.5,29.85,South,191,1.9,3.1,90,0.00,,,0.00,WSDL version 420,2013-08-31 15:04:00,
2013-08-31 11:10:00,77.0,73.3,29.85,East,79,2.7,4.9,88,0.00,,,0.00,WSDL version 420,2013-08-31 15:10:00,
2013-08-31 11:16:00,77.2,73.7,29.85,WSW,248,1.1,4.9,89,0.00,,,0.00,WSDL version 420,2013-08-31 15:16:00,
2013-08-31 11:22:00,77.5,74.0,29.85,WSW,243,1.2,3.4,89,0.00,,,0.00,WSDL version 420,2013-08-31 15:22:00,
2013-08-31 11:28:00,77.9,74.1,29.83,SE,146,3.2,5.6,88,0.00,,,0.00,WSDL version 420,2013-08-31 15:28:00,
2013-08-31 11:34:00,78.4,74.3,29.83,South,169,1.3,5.6,88,0.00,,,0.00,WSDL version 420,2013-08-31 15:34:00,
2013-08-31 11:40:00,78.6,74.6,29.83,SW,216,1.6,2.7,88,0.00,,,0.00,WSDL version 420,2013-08-31 15:40:00,
2013-08-31 11:46:00,78.3,73.9,29.85,SE,131,1.4,3.8,86,0.00,,,0.00,WSDL version 420,2013-08-31 15:46:00,
2013-08-31 11:52:00,78.4,73.9,29.85,SW,216,1.1,3.6,86,0.00,,,0.00,WSDL version 420,2013-08-31 15:52:00,
2013-08-31 11:58:00,78.4,74.1,29.83,West,270,1.9,3.1,87,0.00,,,0.00,WSDL version 420,2013-08-31 15:58:00,
2013-08-31 12:04:00,78.4,73.8,29.83,ESE,113,1.9,3.1,86,0.00,,,0.00,WSDL version 420,2013-08-31 16:04:00,
2013-08-31 12:10:00,78.9,74.2,29.83,SW,225,1.3,2.7,86,0.00,,,0.00,WSDL version 420,2013-08-31 16:10:00,
2013-08-31 12:16:00,79.0,74.2,29.85,East,94,1.0,2.7,86,0.00,,,0.00,WSDL version 420,2013-08-31 16:16:00,
2013-08-31 12:22:00,79.3,74.3,29.85,SE,131,1.5,2.9,84,0.00,,,0.00,WSDL version 420,2013-08-31 16:22:00,
2013-08-31 12:28:00,79.1,74.1,29.83,WNW,302,2.1,4.3,84,0.00,,,0.00,WSDL version 420,2013-08-31 16:28:00,
2013-08-31 12:34:00,78.6,73.6,29.83,SSW,207,0.2,4.3,86,0.00,,,0.00,WSDL version 420,2013-08-31 16:34:00,
2013-08-31 12:40:00,78.5,73.9,29.83,South,173,0.0,1.1,86,0.00,,,0.00,WSDL version 420,2013-08-31 16:40:00,
2013-08-31 12:46:00,78.3,73.6,29.85,SW,225,0.4,1.1,86,0.00,,,0.00,WSDL version 420,2013-08-31 16:46:00,
2013-08-31 12:52:00,78.1,73.7,29.85,SW,225,0.0,2.5,87,0.00,,,0.00,WSDL version 420,2013-08-31 16:52:00,
2013-08-31 12:58:00,78.1,73.5,29.83,WSW,248,0.4,2.0,86,0.00,,,0.00,WSDL version 420,2013-08-31 16:58:00,
2013-08-31 13:04:00,78.3,73.6,29.83,SE,135,0.4,2.7,86,0.00,,,0.00,WSDL version 420,2013-08-31 17:04:00,
2013-08-31 13:10:00,78.4,73.6,29.83,WSW,248,0.5,3.1,86,0.00,,,0.00,WSDL version 420,2013-08-31 17:10:00,
2013-08-31 13:16:00,78.9,73.9,29.83,North,356,1.3,3.1,84,0.00,,,0.00,WSDL version 420,2013-08-31 17:16:00,
2013-08-31 13:22:00,79.2,73.8,29.83,East,96,2.9,2.9,83,0.00,,,0.00,WSDL version 420,2013-08-31 17:22:00,
2013-08-31 13:28:00,79.7,74.1,29.83,South,174,3.4,4.0,83,0.00,,,0.00,WSDL version 420,2013-08-31 17:28:00,
2013-08-31 13:34:00,80.4,74.5,29.83,NNW,338,0.4,4.0,82,0.00,,,0.00,WSDL version 420,2013-08-31 17:34:00,
2013-08-31 13:40:00,80.7,74.7,29.83,South,189,2.6,4.0,81,0.00,,,0.00,WSDL version 420,2013-08-31 17:40:00,
2013-08-31 13:46:00,79.8,73.5,29.83,South,180,1.8,4.0,81,0.00,,,0.00,WSDL version 420,2013-08-31 17:46:00,
2013-08-31 13:52:00,79.2,72.9,29.83,North,351,2.0,2.9,81,0.00,,,0.00,WSDL version 420,2013-08-31 17:52:00,
2013-08-31 13:58:00,79.2,73.2,29.83,South,191,2.7,3.6,82,0.00,,,0.00,WSDL version 420,2013-08-31 17:58:00,
2013-08-31 14:04:00,79.4,73.5,29.83,SW,225,1.6,3.6,82,0.00,,,0.00,WSDL version 420,2013-08-31 18:04:00,
2013-08-31 14:10:00,79.7,73.9,29.83,South,174,1.2,3.1,83,0.00,,,0.00,WSDL version 420,2013-08-31 18:10:00,
2013-08-31 14:16:00,79.8,74.1,29.83,South,186,0.8,3.1,82,0.00,,,0.00,WSDL version 420,2013-08-31 18:16:00,
2013-08-31 14:22:00,79.4,73.9,29.83,SSE,153,1.2,3.1,83,0.00,,,0.00,WSDL version 420,2013-08-31 18:22:00,
2013-08-31 14:28:00,79.3,73.8,29.83,SW,225,1.9,2.5,83,0.00,,,0.00,WSDL version 420,2013-08-31 18:28:00,
2013-08-31 14:34:00,79.3,73.7,29.83,WSW,253,1.4,2.5,82,0.00,,,0.00,WSDL version 420,2013-08-31 18:34:00,
2013-08-31 14:40:00,79.5,73.8,29.83,South,180,1.1,2.2,83,0.00,,,0.00,WSDL version 420,2013-08-31 18:40:00,
2013-08-31 14:46:00,79.7,74.2,29.83,WSW,239,1.7,2.5,83,0.00,,,0.00,WSDL version 420,2013-08-31 18:46:00,
2013-08-31 14:52:00,79.5,73.5,29.83,East,86,0.8,2.5,82,0.00,,,0.00,WSDL version 420,2013-08-31 18:52:00,
2013-08-31 14:58:00,79.6,73.7,29.83,West,279,0.6,2.5,82,0.00,,,0.00,WSDL version 420,2013-08-31 18:58:00,
2013-08-31 15:04:00,79.7,73.8,29.83,South,191,0.6,2.5,82,0.00,,,0.00,WSDL version 420,2013-08-31 19:04:00,
2013-08-31 15:10:00,79.7,73.8,29.83,SSW,195,3.1,3.4,82,0.00,,,0.00,WSDL version 420,2013-08-31 19:10:00,
2013-08-31 15:16:00,79.7,73.8,29.83,SSW,207,1.4,3.4,82,0.00,,,0.00,WSDL version 420,2013-08-31 19:16:00,
2013-08-31 15:23:00,79.6,73.7,29.83,ENE,73,0.8,2.9,82,0.00,,,0.00,WSDL version 420,2013-08-31 19:23:00,
2013-08-31 15:29:00,79.4,73.5,29.83,East,81,2.6,3.8,82,0.00,,,0.00,WSDL version 420,2013-08-31 19:29:00,
2013-08-31 15:35:00,78.8,72.8,29.83,NW,304,2.1,4.7,82,0.00,,,0.00,WSDL version 420,2013-08-31 19:35:00,
2013-08-31 15:41:00,78.5,72.6,29.83,South,180,2.6,4.7,82,0.00,,,0.00,WSDL version 420,2013-08-31 19:41:00,
2013-08-31 15:47:00,78.2,72.6,29.83,WSW,243,1.3,2.9,83,0.00,,,0.00,WSDL version 420,2013-08-31 19:47:00,
2013-08-31 15:53:00,78.1,72.6,29.83,South,169,2.3,2.9,83,0.00,,,0.00,WSDL version 420,2013-08-31 19:53:00,
2013-08-31 15:59:00,77.8,72.6,29.83,SSE,163,0.6,3.6,84,0.00,,,0.00,WSDL version 420,2013-08-31 19:59:00,
2013-08-31 16:05:00,77.8,72.8,29.83,WNW,293,0.4,2.2,86,0.00,,,0.00,WSDL version 420,2013-08-31 20:05:00,
2013-08-31 16:11:00,77.8,73.0,29.83,South,180,1.9,2.7,86,0.00,,,0.00,WSDL version 420,2013-08-31 20:11:00,
2013-08-31 16:17:00,77.7,72.9,29.83,SSE,149,0.4,2.7,86,0.00,,,0.00,WSDL version 420,2013-08-31 20:17:00,
2013-08-31 16:23:00,77.9,73.2,29.83,SSW,197,0.6,2.2,86,0.00,,,0.00,WSDL version 420,2013-08-31 20:23:00,
2013-08-31 16:29:00,77.6,72.9,29.80,SW,236,1.9,2.9,86,0.00,,,0.00,WSDL version 420,2013-08-31 20:29:00,
2013-08-31 16:35:00,77.5,72.9,29.80,WSW,252,1.4,2.9,86,0.00,,,0.00,WSDL version 420,2013-08-31 20:35:00,
2013-08-31 16:41:00,77.6,72.9,29.80,SW,221,1.5,4.7,86,0.00,,,0.00,WSDL version 420,2013-08-31 20:41:00,
2013-08-31 16:47:00,77.7,73.2,29.80,WSW,252,2.3,4.7,87,0.00,,,0.00,WSDL version 420,2013-08-31 20:47:00,
2013-08-31 16:53:00,77.8,73.5,29.80,SW,225,0.0,3.4,87,0.00,,,0.00,WSDL version 420,2013-08-31 20:53:00,
2013-08-31 16:59:00,77.9,73.6,29.80,SW,216,1.0,2.5,87,0.00,,,0.00,WSDL version 420,2013-08-31 20:59:00,
2013-08-31 17:05:00,77.9,73.5,29.80,SW,225,0.7,2.7,87,0.00,,,0.00,WSDL version 420,2013-08-31 21:05:00,
2013-08-31 17:11:00,78.0,73.6,29.80,WSW,239,0.4,2.0,87,0.00,,,0.00,WSDL version 420,2013-08-31 21:11:00,
2013-08-31 17:17:00,78.3,74.0,29.80,WSW,257,0.0,2.0,87,0.00,,,0.00,WSDL version 420,2013-08-31 21:17:00,
2013-08-31 17:23:00,78.4,73.9,29.80,SSW,203,0.0,3.6,87,0.00,,,0.00,WSDL version 420,2013-08-31 21:23:00,
2013-08-31 17:29:00,78.3,74.0,29.80,WSW,239,1.8,3.1,87,0.00,,,0.00,WSDL version 420,2013-08-31 21:29:00,
2013-08-31 17:35:00,78.3,73.8,29.80,NNW,332,0.2,3.1,87,0.00,,,0.00,WSDL version 420,2013-08-31 21:35:00,
2013-08-31 17:41:00,78.3,74.0,29.80,WSW,248,0.4,1.3,87,0.00,,,0.00,WSDL version 420,2013-08-31 21:41:00,
2013-08-31 17:47:00,78.3,74.0,29.80,SW,225,0.0,1.6,87,0.00,,,0.00,WSDL version 420,2013-08-31 21:47:00,
2013-08-31 17:53:00,78.3,74.0,29.80,SSW,195,0.7,1.6,87,0.00,,,0.00,WSDL version 420,2013-08-31 21:53:00,
2013-08-31 17:59:00,78.3,74.1,29.80,SE,146,1.0,2.2,87,0.00,,,0.00,WSDL version 420,2013-08-31 21:59:00,
2013-08-31 18:05:00,78.2,73.9,29.80,South,180,1.9,3.1,87,0.00,,,0.00,WSDL version 420,2013-08-31 22:05:00,
2013-08-31 18:11:00,78.0,73.9,29.80,SSW,203,0.0,3.1,88,0.00,,,0.00,WSDL version 420,2013-08-31 22:11:00,
2013-08-31 18:17:00,77.5,73.6,29.80,SSW,203,0.3,1.3,88,0.00,,,0.00,WSDL version 420,2013-08-31 22:17:00,
2013-08-31 18:23:00,77.3,73.4,29.80,South,191,0.8,1.6,88,0.00,,,0.00,WSDL version 420,2013-08-31 22:23:00,
2013-08-31 18:29:00,77.1,73.4,29.80,WSW,257,0.4,1.6,89,0.00,,,0.00,WSDL version 420,2013-08-31 22:29:00,
2013-08-31 18:35:00,76.9,73.4,29.80,SW,225,0.0,1.1,89,0.00,,,0.00,WSDL version 420,2013-08-31 22:35:00,
2013-08-31 18:41:00,76.6,73.5,29.80,SW,225,0.0,0.0,90,0.00,,,0.00,WSDL version 420,2013-08-31 22:41:00,
2013-08-31 18:47:00,76.3,73.2,29.80,SW,225,0.0,0.0,90,0.00,,,0.00,WSDL version 420,2013-08-31 22:47:00,
2013-08-31 18:53:00,76.2,73.2,29.80,SW,225,0.0,0.0,91,0.00,,,0.00,WSDL version 420,2013-08-31 22:53:00,
2013-08-31 18:59:00,76.0,73.1,29.80,SW,234,0.4,1.6,91,0.00,,,0.00,WSDL version 420,2013-08-31 22:59:00,
2013-08-31 19:05:00,75.8,73.0,29.80,SW,225,0.2,1.6,91,0.00,,,0.00,WSDL version 420,2013-08-31 23:05:00,
2013-08-31 19:11:00,75.7,72.9,29.80,SW,225,0.0,1.1,91,0.00,,,0.00,WSDL version 420,2013-08-31 23:11:00,
2013-08-31 19:17:00,75.5,72.7,29.80,SW,230,0.0,0.9,91,0.00,,,0.00,WSDL version 420,2013-08-31 23:17:00,
2013-08-31 19:23:00,75.4,73.0,29.80,WSW,248,0.0,0.0,92,0.00,,,0.00,WSDL version 420,2013-08-31 23:23:00,
2013-08-31 19:29:00,75.2,72.7,29.80,WSW,248,0.0,0.0,92,0.00,,,0.00,WSDL version 420,2013-08-31 23:29:00,
2013-08-31 19:35:00,75.0,72.6,29.80,WSW,248,0.0,0.0,92,0.00,,,0.00,WSDL version 420,2013-08-31 23:35:00,
2013-08-31 19:41:00,74.9,72.6,29.80,WSW,248,0.0,0.0,92,0.00,,,0.00,WSDL version 420,2013-08-31 23:41:00,
2013-08-31 19:47:00,74.8,72.7,29.80,WSW,248,0.0,0.0,93,0.00,,,0.00,WSDL version 420,2013-08-31 23:47:00,
2013-08-31 19:54:00,74.8,72.7,29.80,WSW,248,0.0,0.0,93,0.00,,,0.00,WSDL version 420,2013-08-31 23:54:00,
2013-08-31 20:00:00,74.6,72.5,29.80,SSW,208,0.3,1.6,93,0.00,,,0.00,WSDL version 420,2013-09-01 00:00:00,
2013-08-31 20:06:00,74.5,72.4,29.80,SW,225,0.0,2.0,93,0.00,,,0.00,WSDL version 420,2013-09-01 00:06:00,
2013-08-31 20:12:00,74.4,72.3,29.80,SW,236,1.5,2.5,93,0.00,,,0.00,WSDL version 420,2013-09-01 00:12:00,
2013-08-31 20:18:00,74.3,72.6,29.80,WSW,240,1.3,2.5,94,0.00,,,0.00,WSDL version 420,2013-09-01 00:18:00,
2013-08-31 20:24:00,74.2,72.3,29.80,SW,225,1.4,2.2,94,0.00,,,0.00,WSDL version 420,2013-09-01 00:24:00,
2013-08-31 20:30:00,74.2,72.5,29.80,WSW,243,1.5,2.5,94,0.00,,,0.00,WSDL version 420,2013-09-01 00:30:00,
2013-08-31 20:36:00,74.1,72.4,29.80,SW,234,0.0,2.5,94,0.00,,,0.00,WSDL version 420,2013-09-01 00:36:00,
2013-08-31 20:42:00,74.2,72.5,29.80,WSW,248,0.0,0.0,94,0.00,,,0.00,WSDL version 420,2013-09-01 00:42:00,
2013-08-31 20:48:00,74.1,72.4,29.83,South,180,0.0,0.0,94,0.00,,,0.00,WSDL version 420,2013-09-01 00:48:00,
2013-08-31 20:54:00,73.9,72.2,29.83,SW,218,1.6,2.5,94,0.00,,,0.00,WSDL version 420,2013-09-01 00:54:00,
2013-08-31 21:00:00,73.9,72.5,29.83,West,270,0.7,2.5,96,0.00,,,0.00,WSDL version 420,2013-09-01 01:00:00,
2013-08-31 21:06:00,73.9,72.6,29.83,West,270,0.0,1.6,96,0.00,,,0.00,WSDL version 420,2013-09-01 01:06:00,
2013-08-31 21:12:00,73.9,72.6,29.83,West,270,0.0,0.0,96,0.00,,,0.00,WSDL version 420,2013-09-01 01:12:00,
2013-08-31 21:18:00,73.8,72.4,29.85,NW,321,0.0,0.0,96,0.00,,,0.00,WSDL version 420,2013-09-01 01:18:00,
2013-08-31 21:24:00,73.8,72.4,29.85,NNW,338,0.0,0.0,96,0.00,,,0.00,WSDL version 420,2013-09-01 01:24:00,
2013-08-31 21:30:00,73.8,72.4,29.85,NNW,338,0.0,0.0,96,0.00,,,0.00,WSDL version 420,2013-09-01 01:30:00,
2013-08-31 21:36:00,73.6,72.2,29.85,NNW,338,0.0,0.0,96,0.00,,,0.00,WSDL version 420,2013-09-01 01:36:00,
2013-08-31 21:42:00,73.6,72.3,29.85,West,270,0.0,0.0,96,0.00,,,0.00,WSDL version 420,2013-09-01 01:42:00,
2013-08-31 21:48:00,73.7,72.4,29.85,West,270,0.0,0.0,96,0.00,,,0.00,WSDL version 420,2013-09-01 01:48:00,
2013-08-31 21:54:00,73.6,72.2,29.85,SSW,203,0.0,0.0,96,0.00,,,0.00,WSDL version 420,2013-09-01 01:54:00,
2013-08-31 22:00:00,73.6,72.2,29.85,SW,225,0.0,0.0,96,0.00,,,0.00,WSDL version 420,2013-09-01 02:00:00,
2013-08-31 22:06:00,73.4,72.1,29.85,SW,233,0.0,0.0,96,0.00,,,0.00,WSDL version 420,2013-09-01 02:06:00,
2013-08-31 22:12:00,73.4,72.1,29.85,WSW,248,0.0,0.0,96,0.00,,,0.00,WSDL version 420,2013-09-01 02:12:00,
2013-08-31 22:18:00,73.4,72.1,29.85,WSW,248,0.0,1.1,96,0.00,,,0.00,WSDL version 420,2013-09-01 02:18:00,
2013-08-31 22:24:00,73.3,72.2,29.85,SSW,203,0.0,1.1,96,0.00,,,0.00,WSDL version 420,2013-09-01 02:24:00,
2013-08-31 22:30:00,73.2,72.2,29.85,SSW,203,0.0,0.0,97,0.00,,,0.00,WSDL version 420,2013-09-01 02:30:00,
2013-08-31 22:36:00,73.3,72.2,29.85,SSW,203,0.0,0.0,96,0.00,,,0.00,WSDL version 420,2013-09-01 02:36:00,
2013-08-31 22:42:00,73.3,72.2,29.85,SSW,203,0.0,0.0,97,0.00,,,0.00,WSDL version 420,2013-09-01 02:42:00,
2013-08-31 22:48:00,73.4,72.3,29.85,SSW,203,0.0,0.0,97,0.00,,,0.00,WSDL version 420,2013-09-01 02:48:00,
2013-08-31 22:54:00,73.4,72.3,29.85,SSW,203,0.0,0.0,97,0.00,,,0.00,WSDL version 420,2013-09-01 02:54:00,
2013-08-31 23:00:00,73.4,72.3,29.85,SSW,203,0.0,0.0,97,0.00,,,0.00,WSDL version 420,2013-09-01 03:00:00,
2013-08-31 23:06:00,73.4,72.4,29.85,SSW,203,0.0,0.0,97,0.00,,,0.00,WSDL version 420,2013-09-01 03:06:00,
2013-08-31 23:12:00,73.4,72.3,29.85,WSW,248,0.0,1.6,97,0.00,,,0.00,WSDL version 420,2013-09-01 03:12:00,
2013-08-31 23:18:00,73.4,72.4,29.85,WSW,248,0.0,1.6,97,0.00,,,0.00,WSDL version 420,2013-09-01 03:18:00,
2013-08-31 23:24:00,73.3,72.3,29.85,WSW,248,0.0,0.0,97,0.00,,,0.00,WSDL version 420,2013-09-01 03:24:00,
2013-08-31 23:30:00,73.3,72.3,29.85,WSW,248,0.0,0.0,97,0.00,,,0.00,WSDL version 420,2013-09-01 03:30:00,
2013-08-31 23:36:00,73.1,72.1,29.85,WSW,248,0.0,0.0,97,0.00,,,0.00,WSDL version 420,2013-09-01 03:36:00,
2013-08-31 23:42:00,72.9,71.9,29.85,WSW,248,0.0,0.0,97,0.00,,,0.00,WSDL version 420,2013-09-01 03:42:00,
2013-08-31 23:48:00,72.7,71.7,29.85,SW,236,0.0,0.0,97,0.00,,,0.00,WSDL version 420,2013-09-01 03:48:00,
2013-08-31 23:55:00,72.7,71.7,29.85,SW,225,0.0,0.0,97,0.00,,,0.00,WSDL version 420,2013-09-01 03:55:00,